sensor_id;sensor_type;location;lat;lon;timestamp;pressure;altitude;pressure_sealevel;temperature;humidity
39823;BME280;25499;53.958;10.970;2023-02-17T06:44:11;100939.91;;;8.28;100.00
39823;BME280;25499;53.958;10.970;2023-02-17T06:46:37;100926.97;;;8.31;100.00
39823;BME280;25499;53.958;10.970;2023-02-17T06:49:02;100928.72;;;8.32;100.00
39823;BME280;25499;53.958;10.970;2023-02-17T06:51:28;100920.94;;;8.32;100.00
39823;BME280;25499;53.958;10.970;2023-02-17T06:53:53;100908.84;;;8.34;100.00
39823;BME280;25499;53.958;10.970;2023-02-17T06:56:19;100908.88;;;8.40;100.00
39823;BME280;25499;53.958;10.970;2023-02-17T06:58:44;100901.97;;;8.39;100.00
39823;BME280;25499;53.958;10.970;2023-02-17T07:01:18;100899.38;;;8.40;100.00
39823;BME280;25499;53.958;10.970;2023-02-17T07:03:44;100897.63;;;8.39;100.00
39823;BME280;25499;53.958;10.970;2023-02-17T07:06:10;100895.13;;;8.44;100.00
39823;BME280;25499;53.958;10.970;2023-02-17T07:08:35;100893.28;;;8.35;100.00
39823;BME280;25499;53.958;10.970;2023-02-17T07:11:08;100895.13;;;8.46;100.00
39823;BME280;25499;53.958;10.970;2023-02-17T07:13:34;100883.00;;;8.43;100.00
39823;BME280;25499;53.958;10.970;2023-02-17T07:16:00;100888.19;;;8.43;100.00
39823;BME280;25499;53.958;10.970;2023-02-17T07:18:26;100889.94;;;8.47;100.00
39823;BME280;25499;53.958;10.970;2023-02-17T07:20:51;100885.63;;;8.48;100.00
39823;BME280;25499;53.958;10.970;2023-02-17T07:23:17;100874.41;;;8.49;100.00
39823;BME280;25499;53.958;10.970;2023-02-17T07:25:43;100864.84;;;8.46;100.00
39823;BME280;25499;53.958;10.970;2023-02-17T07:28:09;100875.25;;;8.48;100.00
39823;BME280;25499;53.958;10.970;2023-02-17T07:30:39;100857.09;;;8.49;100.00
39823;BME280;25499;53.958;10.970;2023-02-17T07:33:05;100852.75;;;8.47;100.00
39823;BME280;25499;53.958;10.970;2023-02-17T07:35:31;100854.50;;;8.48;100.00
39823;BME280;25499;53.958;10.970;2023-02-17T07:37:57;100839.81;;;8.51;100.00
39823;BME280;25499;53.958;10.970;2023-02-17T07:40:23;100843.25;;;8.46;100.00
39823;BME280;25499;53.958;10.970;2023-02-17T07:42:48;100836.31;;;8.46;100.00
39823;BME280;25499;53.958;10.970;2023-02-17T07:45:14;100839.78;;;8.47;100.00
39823;BME280;25499;53.958;10.970;2023-02-17T07:47:40;100841.53;;;8.48;100.00
39823;BME280;25499;53.958;10.970;2023-02-17T07:50:06;100843.25;;;8.47;100.00
39823;BME280;25499;53.958;10.970;2023-02-17T07:52:32;100849.28;;;8.45;100.00
39823;BME280;25499;53.958;10.970;2023-02-17T07:54:57;100842.38;;;8.47;100.00
39823;BME280;25499;53.958;10.970;2023-02-17T07:57:23;100846.72;;;8.48;100.00
39823;BME280;25499;53.958;10.970;2023-02-17T07:59:48;100849.22;;;8.41;100.00
39823;BME280;25499;53.958;10.970;2023-02-17T08:02:14;100844.09;;;8.48;100.00
39823;BME280;25499;53.958;10.970;2023-02-17T08:04:40;100821.56;;;8.42;100.00
39823;BME280;25499;53.958;10.970;2023-02-17T08:07:05;100809.53;;;8.47;100.00
39823;BME280;25499;53.958;10.970;2023-02-17T08:09:30;100818.16;;;8.46;100.00
39823;BME280;25499;53.958;10.970;2023-02-17T08:12:16;100815.56;;;8.46;100.00
39823;BME280;25499;53.958;10.970;2023-02-17T08:15:00;100820.72;;;8.43;100.00
39823;BME280;25499;53.958;10.970;2023-02-17T08:17:27;100812.13;;;8.47;100.00
39823;BME280;25499;53.958;10.970;2023-02-17T08:19:54;100806.94;;;8.47;100.00
39823;BME280;25499;53.958;10.970;2023-02-17T08:22:21;100805.22;;;8.49;100.00
39823;BME280;25499;53.958;10.970;2023-02-17T08:24:47;100800.00;;;8.46;100.00
39823;BME280;25499;53.958;10.970;2023-02-17T08:27:13;100803.47;;;8.51;100.00
39823;BME280;25499;53.958;10.970;2023-02-17T08:29:40;100793.97;;;8.53;100.00
39823;BME280;25499;53.958;10.970;2023-02-17T08:32:06;100795.66;;;8.47;100.00
39823;BME280;25499;53.958;10.970;2023-02-17T08:34:31;100787.91;;;8.51;100.00
39823;BME280;25499;53.958;10.970;2023-02-17T08:37:00;100780.16;;;8.54;100.00
39823;BME280;25499;53.958;10.970;2023-02-17T08:39:26;100775.84;;;8.56;100.00
39823;BME280;25499;53.958;10.970;2023-02-17T08:41:52;100764.59;;;8.57;100.00
39823;BME280;25499;53.958;10.970;2023-02-17T08:44:18;100763.75;;;8.60;100.00
39823;BME280;25499;53.958;10.970;2023-02-17T08:46:45;100760.28;;;8.59;100.00
39823;BME280;25499;53.958;10.970;2023-02-17T08:49:21;100755.94;;;8.58;100.00
39823;BME280;25499;53.958;10.970;2023-02-17T08:51:47;100760.25;;;8.55;100.00
39823;BME280;25499;53.958;10.970;2023-02-17T08:54:14;100750.75;;;8.57;100.00
39823;BME280;25499;53.958;10.970;2023-02-17T08:56:40;100752.50;;;8.61;100.00
39823;BME280;25499;53.958;10.970;2023-02-17T08:59:08;100723.97;;;8.64;100.00
39823;BME280;25499;53.958;10.970;2023-02-17T09:01:34;100730.00;;;8.60;100.00
39823;BME280;25499;53.958;10.970;2023-02-17T09:04:01;100725.72;;;8.70;100.00
39823;BME280;25499;53.958;10.970;2023-02-17T09:06:32;100720.50;;;8.67;100.00
39823;BME280;25499;53.958;10.970;2023-02-17T09:08:58;100717.91;;;8.64;100.00
39823;BME280;25499;53.958;10.970;2023-02-17T09:11:24;100724.00;;;8.66;100.00
39823;BME280;25499;53.958;10.970;2023-02-17T09:13:50;100712.72;;;8.65;100.00
39823;BME280;25499;53.958;10.970;2023-02-17T09:16:15;100717.91;;;8.64;100.00
39823;BME280;25499;53.958;10.970;2023-02-17T09:18:43;100722.25;;;8.68;100.00
39823;BME280;25499;53.958;10.970;2023-02-17T09:21:10;100714.50;;;8.69;100.00
39823;BME280;25499;53.958;10.970;2023-02-17T09:23:36;100705.84;;;8.67;100.00
39823;BME280;25499;53.958;10.970;2023-02-17T09:26:08;100689.34;;;8.64;100.00
39823;BME280;25499;53.958;10.970;2023-02-17T09:28:34;100681.59;;;8.65;100.00
39823;BME280;25499;53.958;10.970;2023-02-17T09:31:18;100679.88;;;8.67;100.00
39823;BME280;25499;53.958;10.970;2023-02-17T09:33:44;100687.69;;;8.75;100.00
39823;BME280;25499;53.958;10.970;2023-02-17T09:36:14;100681.63;;;8.71;100.00
39823;BME280;25499;53.958;10.970;2023-02-17T09:38:40;100679.88;;;8.73;100.00
39823;BME280;25499;53.958;10.970;2023-02-17T09:44:15;100680.75;;;8.77;100.00
39823;BME280;25499;53.958;10.970;2023-02-17T09:46:45;100673.84;;;8.73;100.00
39823;BME280;25499;53.958;10.970;2023-02-17T09:49:20;100665.19;;;8.77;100.00
39823;BME280;25499;53.958;10.970;2023-02-17T09:54:28;100657.38;;;8.75;100.00
39823;BME280;25499;53.958;10.970;2023-02-17T09:56:58;100672.09;;;8.76;100.00
39823;BME280;25499;53.958;10.970;2023-02-17T09:59:31;100685.94;;;8.72;100.00
39823;BME280;25499;53.958;10.970;2023-02-17T10:01:58;100679.03;;;8.79;100.00
39823;BME280;25499;53.958;10.970;2023-02-17T10:04:37;100675.56;;;8.80;100.00
39823;BME280;25499;53.958;10.970;2023-02-17T10:07:19;100659.13;;;8.76;100.00
39823;BME280;25499;53.958;10.970;2023-02-17T10:09:54;100664.34;;;8.78;100.00
39823;BME280;25499;53.958;10.970;2023-02-17T10:12:25;100657.41;;;8.82;100.00
39823;BME280;25499;53.958;10.970;2023-02-17T10:15:03;100666.94;;;8.80;100.00
39823;BME280;25499;53.958;10.970;2023-02-17T10:18:10;100662.59;;;8.78;100.00
39823;BME280;25499;53.958;10.970;2023-02-17T10:20:39;100666.94;;;8.81;100.00
39823;BME280;25499;53.958;10.970;2023-02-17T10:23:20;100640.97;;;8.87;100.00
39823;BME280;25499;53.958;10.970;2023-02-17T10:34:03;100623.69;;;8.92;100.00
39823;BME280;25499;53.958;10.970;2023-02-17T10:39:46;100620.22;;;8.92;100.00
39823;BME280;25499;53.958;10.970;2023-02-17T10:44:53;100627.16;;;8.98;100.00
39823;BME280;25499;53.958;10.970;2023-02-17T10:47:21;100622.84;;;8.98;100.00
39823;BME280;25499;53.958;10.970;2023-02-17T10:49:49;100630.63;;;8.96;100.00
39823;BME280;25499;53.958;10.970;2023-02-17T10:52:23;100627.16;;;8.94;100.00
39823;BME280;25499;53.958;10.970;2023-02-17T10:54:56;100631.47;;;8.95;100.00
39823;BME280;25499;53.958;10.970;2023-02-17T10:57:27;100620.25;;;8.96;100.00
39823;BME280;25499;53.958;10.970;2023-02-17T10:59:57;100613.31;;;8.95;100.00
39823;BME280;25499;53.958;10.970;2023-02-17T11:02:40;100617.63;;;9.03;100.00
39823;BME280;25499;53.958;10.970;2023-02-17T11:05:06;100597.75;;;9.05;100.00
39823;BME280;25499;53.958;10.970;2023-02-17T11:07:38;100585.63;;;9.11;100.00
39823;BME280;25499;53.958;10.970;2023-02-17T11:10:32;100597.72;;;9.12;100.00
39823;BME280;25499;53.958;10.970;2023-02-17T11:12:59;100590.81;;;9.16;100.00
39823;BME280;25499;53.958;10.970;2023-02-17T11:15:35;100598.59;;;9.18;100.00
39823;BME280;25499;53.958;10.970;2023-02-17T11:18:18;100575.22;;;9.19;100.00
39823;BME280;25499;53.958;10.970;2023-02-17T11:20:46;100587.34;;;9.15;100.00
39823;BME280;25499;53.958;10.970;2023-02-17T11:25:41;100557.91;;;9.21;100.00
39823;BME280;25499;53.958;10.970;2023-02-17T11:28:12;100563.09;;;9.30;100.00
39823;BME280;25499;53.958;10.970;2023-02-17T11:30:39;100555.31;;;9.33;100.00
39823;BME280;25499;53.958;10.970;2023-02-17T11:33:20;100549.22;;;9.44;100.00
39823;BME280;25499;53.958;10.970;2023-02-17T11:35:53;100545.75;;;9.45;100.00
39823;BME280;25499;53.958;10.970;2023-02-17T11:38:22;100546.59;;;9.48;100.00
39823;BME280;25499;53.958;10.970;2023-02-17T11:40:58;100545.75;;;9.48;100.00
39823;BME280;25499;53.958;10.970;2023-02-17T11:43:25;100535.34;;;9.45;100.00
39823;BME280;25499;53.958;10.970;2023-02-17T12:08:45;100544.84;;;9.64;100.00
39823;BME280;25499;53.958;10.970;2023-02-17T12:11:25;100537.91;;;9.63;100.00
39823;BME280;25499;53.958;10.970;2023-02-17T12:16:54;100537.06;;;9.61;100.00
39823;BME280;25499;53.958;10.970;2023-02-17T12:22:19;100522.31;;;9.65;100.00
39823;BME280;25499;53.958;10.970;2023-02-17T12:27:32;100516.28;;;9.57;100.00
39823;BME280;25499;53.958;10.970;2023-02-17T12:35:48;100510.22;;;9.59;100.00
39823;BME280;25499;53.958;10.970;2023-02-17T12:38:23;100504.97;;;9.65;100.00
39823;BME280;25499;53.958;10.970;2023-02-17T12:41:04;100508.47;;;9.61;100.00
39823;BME280;25499;53.958;10.970;2023-02-17T12:43:48;100508.47;;;9.66;100.00
39823;BME280;25499;53.958;10.970;2023-02-17T12:46:16;100502.38;;;9.68;100.00
39823;BME280;25499;53.958;10.970;2023-02-17T12:53:50;100496.28;;;9.74;100.00
39823;BME280;25499;53.958;10.970;2023-02-17T12:58:50;100494.56;;;9.70;100.00
39823;BME280;25499;53.958;10.970;2023-02-17T13:01:18;100502.38;;;9.64;100.00
39823;BME280;25499;53.958;10.970;2023-02-17T13:03:46;100495.44;;;9.69;100.00
39823;BME280;25499;53.958;10.970;2023-02-17T13:09:14;100496.31;;;9.68;100.00
39823;BME280;25499;53.958;10.970;2023-02-17T13:11:41;100497.16;;;9.73;100.00
39823;BME280;25499;53.958;10.970;2023-02-17T13:14:36;100498.03;;;9.69;100.00
39823;BME280;25499;53.958;10.970;2023-02-17T13:17:02;100517.09;;;9.71;100.00
39823;BME280;25499;53.958;10.970;2023-02-17T13:19:30;100509.31;;;9.68;100.00
39823;BME280;25499;53.958;10.970;2023-02-17T13:21:57;100505.81;;;9.70;100.00
39823;BME280;25499;53.958;10.970;2023-02-17T13:24:38;100502.38;;;9.70;100.00
39823;BME280;25499;53.958;10.970;2023-02-17T13:33:03;100472.03;;;9.72;100.00
39823;BME280;25499;53.958;10.970;2023-02-17T13:35:33;100478.97;;;9.78;100.00
39823;BME280;25499;53.958;10.970;2023-02-17T13:37:59;100476.34;;;9.78;100.00
39823;BME280;25499;53.958;10.970;2023-02-17T13:40:33;100480.66;;;9.76;100.00
39823;BME280;25499;53.958;10.970;2023-02-17T13:48:14;100507.56;;;9.79;100.00
39823;BME280;25499;53.958;10.970;2023-02-17T13:50:51;100505.81;;;9.80;100.00
39823;BME280;25499;53.958;10.970;2023-02-17T13:55:49;100502.34;;;9.79;100.00
39823;BME280;25499;53.958;10.970;2023-02-17T13:58:24;100517.94;;;9.79;100.00
39823;BME280;25499;53.958;10.970;2023-02-17T14:00:52;100495.41;;;9.80;100.00
39823;BME280;25499;53.958;10.970;2023-02-17T14:05:50;100486.72;;;9.82;100.00
39823;BME280;25499;53.958;10.970;2023-02-17T14:08:29;100480.66;;;9.76;100.00
39823;BME280;25499;53.958;10.970;2023-02-17T14:11:01;100492.81;;;9.78;100.00
39823;BME280;25499;53.958;10.970;2023-02-17T14:13:30;100459.84;;;9.86;100.00
39823;BME280;25499;53.958;10.970;2023-02-17T14:15:57;100477.16;;;9.89;100.00
39823;BME280;25499;53.958;10.970;2023-02-17T14:18:31;100455.47;;;9.93;100.00
39823;BME280;25499;53.958;10.970;2023-02-17T14:21:02;100459.84;;;9.89;100.00
39823;BME280;25499;53.958;10.970;2023-02-17T14:23:41;100479.75;;;9.89;100.00
39823;BME280;25499;53.958;10.970;2023-02-17T14:26:14;100464.22;;;9.80;100.00
39823;BME280;25499;53.958;10.970;2023-02-17T14:28:51;100445.16;;;9.76;100.00
39823;BME280;25499;53.958;10.970;2023-02-17T14:31:18;100472.91;;;9.73;100.00
39823;BME280;25499;53.958;10.970;2023-02-17T14:33:55;100480.72;;;9.71;100.00
39823;BME280;25499;53.958;10.970;2023-02-17T14:39:02;100478.13;;;9.62;100.00
39823;BME280;25499;53.958;10.970;2023-02-17T14:41:28;100481.59;;;9.65;100.00
39823;BME280;25499;53.958;10.970;2023-02-17T14:43:54;100472.09;;;9.61;100.00
39823;BME280;25499;53.958;10.970;2023-02-17T14:46:19;100481.56;;;9.71;100.00
39823;BME280;25499;53.958;10.970;2023-02-17T14:48:46;100471.22;;;9.59;100.00
39823;BME280;25499;53.958;10.970;2023-02-17T14:51:14;100481.63;;;9.58;100.00
39823;BME280;25499;53.958;10.970;2023-02-17T14:53:39;100474.69;;;9.61;100.00
39823;BME280;25499;53.958;10.970;2023-02-17T14:56:07;100475.53;;;9.63;100.00
39823;BME280;25499;53.958;10.970;2023-02-17T14:58:33;100470.34;;;9.59;100.00
39823;BME280;25499;53.958;10.970;2023-02-17T15:00:59;100476.38;;;9.64;100.00
39823;BME280;25499;53.958;10.970;2023-02-17T15:03:25;100467.78;;;9.51;100.00
39823;BME280;25499;53.958;10.970;2023-02-17T15:05:51;100483.38;;;9.45;100.00
39823;BME280;25499;53.958;10.970;2023-02-17T15:08:19;100472.13;;;9.44;100.00
39823;BME280;25499;53.958;10.970;2023-02-17T15:10:46;100469.53;;;9.49;100.00
39823;BME280;25499;53.958;10.970;2023-02-17T15:13:14;100495.53;;;9.44;100.00
39823;BME280;25499;53.958;10.970;2023-02-17T15:15:40;100495.53;;;9.37;100.00
39823;BME280;25499;53.958;10.970;2023-02-17T15:18:10;100489.47;;;9.33;100.00
39823;BME280;25499;53.958;10.970;2023-02-17T15:20:37;100505.06;;;9.30;100.00
39823;BME280;25499;53.958;10.970;2023-02-17T15:23:18;100504.22;;;9.29;100.00
39823;BME280;25499;53.958;10.970;2023-02-17T15:25:45;100505.94;;;9.20;99.09
39823;BME280;25499;53.958;10.970;2023-02-17T15:28:15;100512.88;;;9.16;98.42
39823;BME280;25499;53.958;10.970;2023-02-17T15:30:44;100528.47;;;9.16;98.94
39823;BME280;25499;53.958;10.970;2023-02-17T15:33:11;100526.75;;;9.12;97.33
39823;BME280;25499;53.958;10.970;2023-02-17T15:35:38;100520.72;;;9.11;96.16
39823;BME280;25499;53.958;10.970;2023-02-17T15:38:04;100520.72;;;9.10;95.39
39823;BME280;25499;53.958;10.970;2023-02-17T15:40:30;100531.94;;;9.04;95.61
39823;BME280;25499;53.958;10.970;2023-02-17T15:42:58;100544.06;;;8.98;95.33
39823;BME280;25499;53.958;10.970;2023-02-17T15:45:26;100529.38;;;8.98;95.41
39823;BME280;25499;53.958;10.970;2023-02-17T15:48:04;100522.41;;;8.91;94.33
39823;BME280;25499;53.958;10.970;2023-02-17T15:50:31;100559.66;;;8.88;95.61
39823;BME280;25499;53.958;10.970;2023-02-17T15:52:57;100580.41;;;8.81;95.53
39823;BME280;25499;53.958;10.970;2023-02-17T15:55:22;100564.81;;;8.68;95.34
39823;BME280;25499;53.958;10.970;2023-02-17T15:57:57;100562.22;;;8.73;94.04
39823;BME280;25499;53.958;10.970;2023-02-17T16:00:29;100552.69;;;8.49;94.35
39823;BME280;25499;53.958;10.970;2023-02-17T16:02:55;100578.63;;;8.56;93.75
39823;BME280;25499;53.958;10.970;2023-02-17T16:05:23;100564.78;;;8.53;93.51
39823;BME280;25499;53.958;10.970;2023-02-17T16:07:49;100579.47;;;8.48;93.78
39823;BME280;25499;53.958;10.970;2023-02-17T16:10:20;100554.38;;;8.45;92.25
39823;BME280;25499;53.958;10.970;2023-02-17T16:12:48;100576.81;;;8.37;92.04
39823;BME280;25499;53.958;10.970;2023-02-17T16:15:20;100571.63;;;8.34;92.54
39823;BME280;25499;53.958;10.970;2023-02-17T16:17:46;100577.66;;;8.28;91.23
39823;BME280;25499;53.958;10.970;2023-02-17T16:20:19;100593.22;;;8.30;91.63
39823;BME280;25499;53.958;10.970;2023-02-17T16:22:45;100591.47;;;8.22;91.12
39823;BME280;25499;53.958;10.970;2023-02-17T16:25:11;100592.34;;;8.20;90.50
39823;BME280;25499;53.958;10.970;2023-02-17T16:27:37;100587.97;;;8.16;89.48
39823;BME280;25499;53.958;10.970;2023-02-17T16:30:21;100597.47;;;8.11;88.88
39823;BME280;25499;53.958;10.970;2023-02-17T16:32:47;100613.00;;;8.06;90.08
39823;BME280;25499;53.958;10.970;2023-02-17T16:35:18;100619.88;;;8.02;90.12
39823;BME280;25499;53.958;10.970;2023-02-17T16:38:28;100632.00;;;8.05;90.47
39823;BME280;25499;53.958;10.970;2023-02-17T16:40:36;100655.34;;;8.03;91.92
39823;BME280;25499;53.958;10.970;2023-02-17T16:43:04;100638.91;;;8.00;90.61
39823;BME280;25499;53.958;10.970;2023-02-17T16:45:31;100620.78;;;8.03;90.29
39823;BME280;25499;53.958;10.970;2023-02-17T16:47:59;100629.34;;;7.96;89.92
39823;BME280;25499;53.958;10.970;2023-02-17T16:50:30;100628.50;;;7.94;88.66
39823;BME280;25499;53.958;10.970;2023-02-17T16:52:58;100646.66;;;7.95;88.27
39823;BME280;25499;53.958;10.970;2023-02-17T16:55:27;100644.06;;;7.97;88.90
39823;BME280;25499;53.958;10.970;2023-02-17T16:57:53;100677.72;;;7.92;89.48
39823;BME280;25499;53.958;10.970;2023-02-17T17:00:21;100653.56;;;7.95;89.06
39823;BME280;25499;53.958;10.970;2023-02-17T17:02:48;100667.38;;;7.89;89.12
39823;BME280;25499;53.958;10.970;2023-02-17T17:05:15;100654.41;;;7.89;88.21
39823;BME280;25499;53.958;10.970;2023-02-17T17:07:41;100664.78;;;7.94;88.26
39823;BME280;25499;53.958;10.970;2023-02-17T17:10:12;100649.19;;;7.84;88.38
39823;BME280;25499;53.958;10.970;2023-02-17T17:12:38;100654.31;;;7.80;88.33
39823;BME280;25499;53.958;10.970;2023-02-17T17:15:04;100675.03;;;7.72;89.27
39823;BME280;25499;53.958;10.970;2023-02-17T17:17:36;100668.13;;;7.76;88.66
39823;BME280;25499;53.958;10.970;2023-02-17T17:20:03;100660.28;;;7.66;88.25
39823;BME280;25499;53.958;10.970;2023-02-17T17:22:28;100671.53;;;7.72;88.07
39823;BME280;25499;53.958;10.970;2023-02-17T17:24:54;100707.78;;;7.67;88.26
39823;BME280;25499;53.958;10.970;2023-02-17T17:27:19;100704.38;;;7.71;88.35
39823;BME280;25499;53.958;10.970;2023-02-17T17:29:45;100712.94;;;7.62;88.11
39823;BME280;25499;53.958;10.970;2023-02-17T17:32:10;100706.06;;;7.66;88.71
39823;BME280;25499;53.958;10.970;2023-02-17T17:34:36;100718.97;;;7.63;87.73
39823;BME280;25499;53.958;10.970;2023-02-17T17:37:02;100697.38;;;7.61;87.36
39823;BME280;25499;53.958;10.970;2023-02-17T17:39:27;100719.81;;;7.57;87.50
39823;BME280;25499;53.958;10.970;2023-02-17T17:41:53;100713.75;;;7.55;87.61
39823;BME280;25499;53.958;10.970;2023-02-17T17:44:19;100685.25;;;7.58;86.88
39823;BME280;25499;53.958;10.970;2023-02-17T17:46:46;100712.88;;;7.55;87.93
39823;BME280;25499;53.958;10.970;2023-02-17T17:49:13;100743.97;;;7.58;88.68
39823;BME280;25499;53.958;10.970;2023-02-17T17:51:38;100748.31;;;7.57;89.22
39823;BME280;25499;53.958;10.970;2023-02-17T17:54:05;100746.56;;;7.58;88.38
39823;BME280;25499;53.958;10.970;2023-02-17T17:56:34;100740.53;;;7.57;87.35
39823;BME280;25499;53.958;10.970;2023-02-17T17:59:01;100755.19;;;7.58;87.59
39823;BME280;25499;53.958;10.970;2023-02-17T18:01:27;100728.41;;;7.55;87.26
39823;BME280;25499;53.958;10.970;2023-02-17T18:03:52;100756.88;;;7.52;87.65
39823;BME280;25499;53.958;10.970;2023-02-17T18:06:34;100763.00;;;7.60;87.88
39823;BME280;25499;53.958;10.970;2023-02-17T18:09:03;100762.97;;;7.57;88.08
39823;BME280;25499;53.958;10.970;2023-02-17T18:11:30;100752.59;;;7.57;87.72
39823;BME280;25499;53.958;10.970;2023-02-17T18:13:59;100760.41;;;7.61;86.82
39823;BME280;25499;53.958;10.970;2023-02-17T18:16:26;100756.06;;;7.56;87.47
39823;BME280;25499;53.958;10.970;2023-02-17T18:18:54;100797.56;;;7.62;88.30
39823;BME280;25499;53.958;10.970;2023-02-17T18:21:20;100784.50;;;7.51;88.11
39823;BME280;25499;53.958;10.970;2023-02-17T18:23:45;100778.53;;;7.55;87.67
39823;BME280;25499;53.958;10.970;2023-02-17T18:26:12;100805.31;;;7.57;87.91
39823;BME280;25499;53.958;10.970;2023-02-17T18:28:37;100791.41;;;7.49;86.77
39823;BME280;25499;53.958;10.970;2023-02-17T18:31:08;100795.72;;;7.49;85.99
39823;BME280;25499;53.958;10.970;2023-02-17T18:33:34;100793.09;;;7.45;85.82
39823;BME280;25499;53.958;10.970;2023-02-17T18:36:07;100809.47;;;7.44;86.76
39823;BME280;25499;53.958;10.970;2023-02-17T18:38:33;100821.53;;;7.41;87.90
39823;BME280;25499;53.958;10.970;2023-02-17T18:40:58;100821.59;;;7.45;87.12
39823;BME280;25499;53.958;10.970;2023-02-17T18:43:24;100797.44;;;7.50;85.56
39823;BME280;25499;53.958;10.970;2023-02-17T18:45:49;100818.13;;;7.46;85.60
39823;BME280;25499;53.958;10.970;2023-02-17T18:48:14;100786.19;;;7.46;84.99
39823;BME280;25499;53.958;10.970;2023-02-17T18:50:40;100776.59;;;7.37;84.54
39823;BME280;25499;53.958;10.970;2023-02-17T18:53:05;100799.78;;;7.28;84.87
39823;BME280;25499;53.958;10.970;2023-02-17T18:55:31;100832.63;;;7.31;85.95
39823;BME280;25499;53.958;10.970;2023-02-17T18:57:56;100820.63;;;7.37;86.51
39823;BME280;25499;53.958;10.970;2023-02-17T19:00:22;100812.84;;;7.37;85.88
39823;BME280;25499;53.958;10.970;2023-02-17T19:02:48;100811.09;;;7.36;85.49
39823;BME280;25499;53.958;10.970;2023-02-17T19:05:14;100817.25;;;7.44;84.65
39823;BME280;25499;53.958;10.970;2023-02-17T19:07:41;100815.53;;;7.43;84.98
39823;BME280;25499;53.958;10.970;2023-02-17T19:10:07;100829.28;;;7.39;85.65
39823;BME280;25499;53.958;10.970;2023-02-17T19:12:33;100868.25;;;7.49;86.73
39823;BME280;25499;53.958;10.970;2023-02-17T19:14:59;100863.84;;;7.43;87.13
39823;BME280;25499;53.958;10.970;2023-02-17T19:17:26;100862.91;;;7.33;87.27
39823;BME280;25499;53.958;10.970;2023-02-17T19:19:51;100877.47;;;7.28;88.20
39823;BME280;25499;53.958;10.970;2023-02-17T19:22:17;100881.88;;;7.32;87.44
39823;BME280;25499;53.958;10.970;2023-02-17T19:24:43;100876.72;;;7.35;87.52
39823;BME280;25499;53.958;10.970;2023-02-17T19:27:09;100912.91;;;7.31;88.24
39823;BME280;25499;53.958;10.970;2023-02-17T19:29:35;100885.34;;;7.34;87.23
39823;BME280;25499;53.958;10.970;2023-02-17T19:32:01;100863.59;;;7.23;86.53
39823;BME280;25499;53.958;10.970;2023-02-17T19:34:27;100876.56;;;7.24;85.72
39823;BME280;25499;53.958;10.970;2023-02-17T19:36:54;100875.78;;;7.28;86.24
39823;BME280;25499;53.958;10.970;2023-02-17T19:39:19;100893.88;;;7.27;87.34
39823;BME280;25499;53.958;10.970;2023-02-17T19:41:45;100905.97;;;7.26;87.25
39823;BME280;25499;53.958;10.970;2023-02-17T19:44:11;100916.28;;;7.23;87.39
39823;BME280;25499;53.958;10.970;2023-02-17T19:46:37;100914.56;;;7.24;87.26
39823;BME280;25499;53.958;10.970;2023-02-17T19:49:03;100899.06;;;7.27;86.39
39823;BME280;25499;53.958;10.970;2023-02-17T19:51:30;100907.72;;;7.29;86.56
39823;BME280;25499;53.958;10.970;2023-02-17T19:53:56;100923.22;;;7.27;87.68
39823;BME280;25499;53.958;10.970;2023-02-17T19:56:24;100931.75;;;7.19;87.36
39823;BME280;25499;53.958;10.970;2023-02-17T19:58:51;100938.59;;;7.14;87.13
39823;BME280;25499;53.958;10.970;2023-02-17T20:01:23;100923.81;;;7.06;87.60
39823;BME280;25499;53.958;10.970;2023-02-17T20:03:49;100955.78;;;7.08;88.14
39823;BME280;25499;53.958;10.970;2023-02-17T20:06:18;100973.88;;;7.07;87.89
39823;BME280;25499;53.958;10.970;2023-02-17T20:08:45;100959.19;;;7.07;87.54
39823;BME280;25499;53.958;10.970;2023-02-17T20:11:13;100944.59;;;7.09;87.01
39823;BME280;25499;53.958;10.970;2023-02-17T20:13:39;100961.84;;;7.10;86.66
39823;BME280;25499;53.958;10.970;2023-02-17T20:16:08;100946.22;;;7.06;85.94
39823;BME280;25499;53.958;10.970;2023-02-17T20:18:39;100965.13;;;7.00;86.64
39823;BME280;25499;53.958;10.970;2023-02-17T20:21:07;100978.91;;;6.96;86.79
39823;BME280;25499;53.958;10.970;2023-02-17T20:23:33;100976.25;;;6.93;86.37
39823;BME280;25499;53.958;10.970;2023-02-17T20:26:04;100952.78;;;6.81;86.29
39823;BME280;25499;53.958;10.970;2023-02-17T20:28:30;100995.00;;;6.78;86.54
39823;BME280;25499;53.958;10.970;2023-02-17T20:30:56;100944.22;;;6.85;85.40
39823;BME280;25499;53.958;10.970;2023-02-17T20:33:21;100988.16;;;6.82;86.69
39823;BME280;25499;53.958;10.970;2023-02-17T20:35:47;100982.09;;;6.80;85.66
39823;BME280;25499;53.958;10.970;2023-02-17T20:38:12;100966.56;;;6.80;85.40
39823;BME280;25499;53.958;10.970;2023-02-17T20:40:37;100957.16;;;6.85;84.27
39823;BME280;25499;53.958;10.970;2023-02-17T20:43:03;100964.06;;;6.86;84.50
39823;BME280;25499;53.958;10.970;2023-02-17T20:45:29;100961.34;;;6.78;84.86
39823;BME280;25499;53.958;10.970;2023-02-17T20:47:54;100961.41;;;6.81;84.25
39823;BME280;25499;53.958;10.970;2023-02-17T20:50:20;100956.13;;;6.75;83.19
39823;BME280;25499;53.958;10.970;2023-02-17T20:52:46;100953.56;;;6.77;83.50
39823;BME280;25499;53.958;10.970;2023-02-17T20:55:13;100967.38;;;6.76;83.81
